Time;durP1;ratioP1;P1;durP2;ratioP2;P2;SDS_P1;SDS_P2;PMS_P1;PMS_P2;Temp;Humidity;BMP_temperature;BMP_pressure;BME280_temperature;BME280_humidity;BME280_pressure;Samples;Min_cycle;Max_cycle;Signal;HPM_P1;HPM_P2
2022/01/23 00:02:15;;;;;;;52.70;19.48;;;;;;;;;;5036231;28;20128;-72
2022/01/23 00:04:46;;;;;;;57.85;22.13;;;;;;;;;;5016754;28;20123;-72
2022/01/23 00:07:15;;;;;;;31.55;16.30;;;;;;;;;;5025731;28;20049;-72
2022/01/23 00:09:43;;;;;;;69.53;23.40;;;;;;;;;;5029138;28;20068;-72
2022/01/23 00:12:17;;;;;;;66.75;23.20;;;;;;;;;;5036022;28;20076;-73
2022/01/23 00:17:34;;;;;;;38.42;19.15;;;;;;;;;;5028865;28;20077;-72
2022/01/23 00:20:03;;;;;;;64.65;22.75;;;;;;;;;;5032434;28;20054;-72
2022/01/23 00:30:34;;;;;;;59.38;21.17;;;;;;;;;;5032964;28;20567;-72
2022/01/23 00:33:03;;;;;;;71.78;24.02;;;;;;;;;;5033373;28;20115;-72
2022/01/23 00:35:32;;;;;;;59.67;20.30;;;;;;;;;;5025720;28;20480;-73
2022/01/23 00:38:00;;;;;;;28.60;15.52;;;;;;;;;;4998245;28;20144;-72
2022/01/23 00:40:29;;;;;;;67.20;23.10;;;;;;;;;;5030394;28;20171;-72
2022/01/23 00:42:58;;;;;;;41.92;18.95;;;;;;;;;;5026686;28;20136;-73
2022/01/23 00:45:30;;;;;;;65.32;22.77;;;;;;;;;;5028976;28;20041;-72
2022/01/23 00:48:04;;;;;;;36.65;18.58;;;;;;;;;;5030814;28;20037;-73
2022/01/23 00:50:33;;;;;;;60.15;23.42;;;;;;;;;;5015316;28;20040;-72
2022/01/23 00:53:02;;;;;;;43.28;19.20;;;;;;;;;;5028525;28;20484;-73
2022/01/23 00:55:29;;;;;;;52.17;21.17;;;;;;;;;;5029992;28;20049;-72
2022/01/23 00:57:57;;;;;;;62.88;22.73;;;;;;;;;;5029755;28;20140;-72
2022/01/23 01:00:24;;;;;;;44.92;19.45;;;;;;;;;;5031835;28;20095;-72
2022/01/23 01:02:52;;;;;;;32.88;16.38;;;;;;;;;;5032189;28;20155;-72
2022/01/23 01:05:20;;;;;;;57.15;21.80;;;;;;;;;;5034702;28;20150;-72
2022/01/23 01:07:48;;;;;;;27.70;14.95;;;;;;;;;;5015360;28;20528;-73
2022/01/23 01:10:23;;;;;;;33.00;16.30;;;;;;;;;;5015235;28;20119;-73
2022/01/23 01:12:55;;;;;;;28.90;16.73;;;;;;;;;;5035584;28;20508;-72
2022/01/23 01:15:31;;;;;;;58.20;21.98;;;;;;;;;;5033981;28;20091;-72
2022/01/23 01:31:39;;;;;;;46.80;20.83;;;;;;;;;;4990255;28;20518;-73
2022/01/23 01:34:12;;;;;;;55.35;22.77;;;;;;;;;;4972556;28;20141;-73
2022/01/23 01:36:51;;;;;;;24.95;14.68;;;;;;;;;;4987314;28;20045;-73
2022/01/23 01:39:24;;;;;;;41.75;19.75;;;;;;;;;;4982833;28;20049;-74
2022/01/23 01:41:53;;;;;;;50.95;19.67;;;;;;;;;;4954272;28;20049;-72
2022/01/23 01:44:24;;;;;;;;;;;;;;;;;;4976636;28;20042;-73
2022/01/23 01:47:10;;;;;;;55.05;20.95;;;;;;;;;;4989610;28;20444;-73
2022/01/23 01:49:42;;;;;;;48.92;19.73;;;;;;;;;;4978844;28;20046;-73
2022/01/23 01:52:11;;;;;;;19.27;13.57;;;;;;;;;;4987842;28;20096;-73
2022/01/23 01:54:39;;;;;;;36.88;18.20;;;;;;;;;;4987257;28;20053;-73
2022/01/23 01:57:15;;;;;;;72.80;24.08;;;;;;;;;;4985074;28;20736;-73
2022/01/23 02:08:31;;;;;;;18.25;13.25;;;;;;;;;;5015844;28;20051;-73
2022/01/23 02:12:00;;;;;;;20.95;14.25;;;;;;;;;;5015949;28;20037;-73
2022/01/23 02:55:46;;;;;;;47.60;18.70;;;;;;;;;;5019594;28;20460;-73
2022/01/23 02:58:15;;;;;;;;;;;;;;;;;;5021197;28;20056;-73
2022/01/23 03:01:05;;;;;;;21.17;12.90;;;;;;;;;;5018727;28;20422;-73
2022/01/23 03:03:58;;;;;;;49.67;20.05;;;;;;;;;;5039305;28;20048;-74
2022/01/23 03:14:51;;;;;;;59.78;22.20;;;;;;;;;;4984917;28;20042;-74
2022/01/23 03:26:27;;;;;;;70.70;22.45;;;;;;;;;;4951108;28;20046;-72
2022/01/23 03:28:37;;;;;;;80.15;23.88;;;;;;;;;;4944957;28;20125;-73
2022/01/23 03:31:20;;;;;;;80.75;23.25;;;;;;;;;;4977791;28;20190;-72
2022/01/23 03:33:48;;;;;;;90.95;24.85;;;;;;;;;;4972129;28;20121;-72
2022/01/23 03:36:15;;;;;;;43.97;18.38;;;;;;;;;;4980658;28;20054;-73
2022/01/23 03:38:43;;;;;;;56.50;20.40;;;;;;;;;;4977613;28;20175;-73
2022/01/23 03:41:11;;;;;;;67.18;22.13;;;;;;;;;;4974291;28;20053;-72
2022/01/23 03:43:40;;;;;;;61.40;21.30;;;;;;;;;;4954678;28;20055;-73
2022/01/23 03:51:16;;;;;;;64.22;20.67;;;;;;;;;;5008453;28;20049;-73
2022/01/23 03:53:47;;;;;;;73.93;21.58;;;;;;;;;;5033676;28;20115;-72
2022/01/23 03:56:15;;;;;;;77.50;22.80;;;;;;;;;;5032691;28;20045;-73
2022/01/23 03:58:43;;;;;;;71.25;21.67;;;;;;;;;;5033565;28;20655;-73
2022/01/23 04:01:18;;;;;;;67.82;22.05;;;;;;;;;;5032934;28;20048;-72
2022/01/23 04:03:47;;;;;;;67.20;21.23;;;;;;;;;;5037738;28;20036;-73
2022/01/23 04:06:15;;;;;;;69.50;21.50;;;;;;;;;;5035291;28;20485;-73
2022/01/23 04:08:44;;;;;;;84.10;22.38;;;;;;;;;;5032895;28;20037;-73
2022/01/23 04:11:12;;;;;;;68.35;20.83;;;;;;;;;;5050368;28;20115;-73
2022/01/23 04:13:56;;;;;;;74.93;23.02;;;;;;;;;;5033071;28;20041;-73
2022/01/23 04:19:18;;;;;;;71.32;21.20;;;;;;;;;;5033248;28;20513;-72
2022/01/23 04:59:55;;;;;;;70.40;22.73;;;;;;;;;;5049754;28;20114;-73
2022/01/23 05:05:58;;;;;;;64.38;21.10;;;;;;;;;;5050316;28;20033;-74
2022/01/23 05:08:49;;;;;;;50.15;19.42;;;;;;;;;;5018836;28;20037;-73
2022/01/23 05:11:50;;;;;;;61.15;20.30;;;;;;;;;;5029745;28;20286;-73
2022/01/23 05:14:32;;;;;;;57.45;19.90;;;;;;;;;;5033605;28;20087;-73
2022/01/23 05:17:00;;;;;;;59.00;21.15;;;;;;;;;;5038784;28;20095;-73
2022/01/23 05:19:27;;;;;;;54.92;21.08;;;;;;;;;;5051585;28;20110;-74
2022/01/23 05:24:40;;;;;;;66.72;21.58;;;;;;;;;;5049588;28;20114;-73
2022/01/23 05:27:09;;;;;;;59.28;21.58;;;;;;;;;;5029721;28;20072;-73
2022/01/23 05:29:37;;;;;;;33.30;17.38;;;;;;;;;;5026529;28;20179;-74
2022/01/23 05:32:05;;;;;;;49.50;20.40;;;;;;;;;;5048695;28;20562;-73
2022/01/23 05:34:32;;;;;;;53.25;21.33;;;;;;;;;;5032121;28;20060;-73
2022/01/23 05:37:10;;;;;;;55.67;21.25;;;;;;;;;;5031404;28;20492;-74
2022/01/23 05:39:39;;;;;;;45.80;19.90;;;;;;;;;;5031688;28;20100;-73
2022/01/23 05:42:08;;;;;;;40.55;17.95;;;;;;;;;;5028818;28;20068;-73
2022/01/23 05:44:37;;;;;;;52.17;20.15;;;;;;;;;;5047901;28;20079;-74
2022/01/23 05:47:06;;;;;;;52.67;19.98;;;;;;;;;;5031356;28;20040;-73
2022/01/23 05:49:54;;;;;;;64.75;21.65;;;;;;;;;;4967159;28;20121;-73
2022/01/23 05:52:56;;;;;;;71.07;22.17;;;;;;;;;;4932143;29;20043;-73
2022/01/23 05:55:41;;;;;;;68.60;21.38;;;;;;;;;;4987950;28;20422;-74
2022/01/23 05:58:31;;;;;;;54.75;19.80;;;;;;;;;;4977627;28;20505;-73
2022/01/23 06:01:00;;;;;;;64.72;21.33;;;;;;;;;;4986415;28;20105;-73
2022/01/23 06:03:27;;;;;;;67.30;21.92;;;;;;;;;;4987018;28;20057;-73
2022/01/23 06:06:06;;;;;;;66.28;21.58;;;;;;;;;;4973525;28;20042;-73
2022/01/23 06:08:33;;;;;;;60.28;21.58;;;;;;;;;;4979831;28;20109;-73
2022/01/23 06:11:01;;;;;;;60.63;21.60;;;;;;;;;;4955984;28;20052;-74
2022/01/23 06:13:38;;;;;;;62.50;22.25;;;;;;;;;;4984344;28;20066;-72
2022/01/23 06:16:07;;;;;;;66.82;21.77;;;;;;;;;;4973552;28;20561;-72
2022/01/23 06:18:39;;;;;;;51.58;21.73;;;;;;;;;;4987312;28;20053;-72
2022/01/23 06:21:25;;;;;;;68.35;22.35;;;;;;;;;;4993953;28;20066;-72
2022/01/23 06:24:06;;;;;;;71.93;22.52;;;;;;;;;;4975412;28;20054;-73
2022/01/23 06:26:57;;;;;;;64.15;21.35;;;;;;;;;;5013411;28;20041;-74
2022/01/23 06:29:30;;;;;;;58.13;20.65;;;;;;;;;;5028429;28;20037;-74
2022/01/23 06:32:02;;;;;;;73.70;22.85;;;;;;;;;;5047732;28;20072;-73
2022/01/23 06:34:30;;;;;;;70.80;21.63;;;;;;;;;;5047062;28;20126;-73
2022/01/23 06:36:58;;;;;;;69.82;22.30;;;;;;;;;;5029458;28;20108;-73
2022/01/23 06:39:26;;;;;;;66.07;22.00;;;;;;;;;;5029795;28;20499;-74
2022/01/23 06:41:57;;;;;;;62.03;21.30;;;;;;;;;;5030536;28;20041;-74
2022/01/23 06:44:42;;;;;;;69.28;22.77;;;;;;;;;;5030216;28;20103;-73
2022/01/23 06:47:12;;;;;;;79.63;23.52;;;;;;;;;;5028502;28;20381;-73
2022/01/23 06:49:40;;;;;;;73.15;23.00;;;;;;;;;;5029954;28;20545;-74
2022/01/23 06:52:08;;;;;;;75.55;23.63;;;;;;;;;;5029746;28;20120;-74
2022/01/23 06:54:41;;;;;;;89.65;26.10;;;;;;;;;;5029599;28;20481;-73
2022/01/23 06:57:09;;;;;;;77.07;24.20;;;;;;;;;;5029516;28;20041;-74
2022/01/23 06:59:37;;;;;;;67.55;23.40;;;;;;;;;;5029406;28;20092;-73
2022/01/23 07:02:32;;;;;;;63.10;22.92;;;;;;;;;;5028373;28;20413;-73
2022/01/23 07:05:17;;;;;;;74.93;25.70;;;;;;;;;;5029659;28;20523;-73
2022/01/23 07:08:10;;;;;;;64.95;23.38;;;;;;;;;;5019834;28;20053;-73
2022/01/23 07:10:45;;;;;;;62.10;22.15;;;;;;;;;;5036867;28;20043;-73
2022/01/23 07:13:23;;;;;;;68.18;24.10;;;;;;;;;;5063268;28;20045;-73
2022/01/23 07:16:06;;;;;;;42.40;19.73;;;;;;;;;;5032255;28;20037;-73
2022/01/23 07:18:59;;;;;;;51.30;21.30;;;;;;;;;;5024164;28;20142;-74
2022/01/23 07:21:32;;;;;;;40.97;18.85;;;;;;;;;;5031676;28;20037;-75
2022/01/23 07:23:59;;;;;;;40.50;18.80;;;;;;;;;;5017564;28;20378;-75
2022/01/23 07:26:28;;;;;;;33.78;17.33;;;;;;;;;;5029219;28;20497;-73
2022/01/23 07:29:02;;;;;;;31.27;17.58;;;;;;;;;;5032173;28;20087;-73
2022/01/23 07:34:09;;;;;;;30.35;17.17;;;;;;;;;;5031941;28;20037;-73
2022/01/23 07:36:37;;;;;;;35.13;18.80;;;;;;;;;;5031842;28;20075;-72
2022/01/23 07:39:28;;;;;;;35.95;17.92;;;;;;;;;;5048762;28;20071;-73
2022/01/23 07:42:01;;;;;;;32.78;17.67;;;;;;;;;;5030569;28;20458;-73
2022/01/23 07:44:47;;;;;;;21.65;14.25;;;;;;;;;;5051091;28;20060;-74
2022/01/23 07:47:14;;;;;;;33.22;18.02;;;;;;;;;;5049279;28;20044;-74
2022/01/23 07:49:54;;;;;;;33.10;16.73;;;;;;;;;;5009960;28;20036;-73
2022/01/23 07:52:40;;;;;;;43.17;20.17;;;;;;;;;;5046891;28;20044;-73
2022/01/23 07:55:17;;;;;;;36.35;19.67;;;;;;;;;;5002031;28;20449;-73
2022/01/23 07:58:12;;;;;;;33.22;18.52;;;;;;;;;;5043931;28;20140;-73
2022/01/23 08:01:00;;;;;;;34.95;17.40;;;;;;;;;;5049625;28;20039;-74
2022/01/23 08:03:28;;;;;;;37.58;18.55;;;;;;;;;;5051036;28;20037;-74
2022/01/23 08:06:12;;;;;;;28.83;16.40;;;;;;;;;;5035890;28;20049;-73
2022/01/23 08:08:42;;;;;;;31.67;17.20;;;;;;;;;;5049348;28;20040;-73
2022/01/23 08:11:14;;;;;;;32.22;17.98;;;;;;;;;;5049154;28;20071;-74
2022/01/23 08:13:42;;;;;;;43.38;19.60;;;;;;;;;;5050322;28;20045;-73
2022/01/23 08:16:10;;;;;;;33.28;17.92;;;;;;;;;;5006895;28;20053;-73
2022/01/23 08:18:38;;;;;;;34.70;18.60;;;;;;;;;;5009213;28;20049;-73
2022/01/23 08:21:05;;;;;;;38.90;22.65;;;;;;;;;;5005248;28;20077;-74
2022/01/23 08:23:33;;;;;;;40.20;20.65;;;;;;;;;;4992162;28;20132;-73
2022/01/23 08:26:00;;;;;;;22.27;13.65;;;;;;;;;;5007009;28;20072;-73
2022/01/23 08:28:27;;;;;;;29.05;17.65;;;;;;;;;;4990921;28;20129;-74
2022/01/23 08:30:55;;;;;;;45.20;20.35;;;;;;;;;;5000250;28;20100;-73
2022/01/23 08:33:24;;;;;;;22.98;16.05;;;;;;;;;;5009578;28;20046;-76
2022/01/23 08:35:56;;;;;;;17.77;13.55;;;;;;;;;;5013287;28;20080;-74
2022/01/23 08:38:24;;;;;;;23.70;15.65;;;;;;;;;;5018392;28;20046;-73
2022/01/23 08:43:38;;;;;;;30.65;18.73;;;;;;;;;;5012439;28;20141;-74
2022/01/23 08:46:06;;;;;;;21.52;14.80;;;;;;;;;;5005920;28;20493;-73
2022/01/23 08:48:33;;;;;;;22.48;16.67;;;;;;;;;;5014576;28;20042;-73
2022/01/23 08:51:00;;;;;;;30.05;19.92;;;;;;;;;;5003425;28;20121;-74
2022/01/23 08:53:28;;;;;;;30.88;18.17;;;;;;;;;;5022633;28;20065;-74
2022/01/23 08:55:55;;;;;;;31.45;19.15;;;;;;;;;;5044736;28;20041;-74
2022/01/23 08:58:23;;;;;;;25.95;16.42;;;;;;;;;;5014773;28;20047;-74
2022/01/23 09:00:50;;;;;;;27.70;16.95;;;;;;;;;;5044327;28;20156;-74
2022/01/23 09:03:17;;;;;;;28.15;17.08;;;;;;;;;;5048806;28;20073;-75
2022/01/23 09:05:45;;;;;;;29.55;18.65;;;;;;;;;;5046058;28;20045;-74
2022/01/23 09:08:12;;;;;;;29.80;18.95;;;;;;;;;;5046113;28;20041;-74
2022/01/23 09:10:42;;;;;;;30.58;19.17;;;;;;;;;;5040487;28;20107;-74
2022/01/23 09:13:26;;;;;;;30.33;18.25;;;;;;;;;;5019854;28;20045;-74
2022/01/23 09:15:53;;;;;;;21.48;16.13;;;;;;;;;;5046027;28;20048;-74
2022/01/23 09:18:21;;;;;;;21.48;15.70;;;;;;;;;;5049876;28;20435;-75
2022/01/23 09:20:48;;;;;;;32.67;20.10;;;;;;;;;;5049114;28;20067;-74
2022/01/23 09:23:15;;;;;;;20.30;15.52;;;;;;;;;;5025118;28;20488;-74
2022/01/23 09:25:43;;;;;;;30.38;19.67;;;;;;;;;;5045591;28;20132;-74
2022/01/23 09:28:13;;;;;;;25.88;17.63;;;;;;;;;;5047307;28;20041;-74
2022/01/23 09:30:44;;;;;;;31.00;19.80;;;;;;;;;;5046463;28;20857;-74
2022/01/23 09:33:11;;;;;;;22.50;16.40;;;;;;;;;;5048773;28;20071;-75
2022/01/23 09:35:39;;;;;;;17.48;13.60;;;;;;;;;;5044206;28;20127;-73
2022/01/23 09:38:06;;;;;;;23.90;15.77;;;;;;;;;;5045538;28;20077;-74
2022/01/23 09:40:33;;;;;;;21.60;16.45;;;;;;;;;;5046623;28;20124;-74
2022/01/23 09:43:08;;;;;;;12.73;8.95;;;;;;;;;;5049221;28;20143;-74
2022/01/23 09:45:36;;;;;;;23.92;17.23;;;;;;;;;;5048665;28;20049;-74
2022/01/23 09:48:04;;;;;;;20.95;15.45;;;;;;;;;;5043731;28;20080;-74
2022/01/23 09:50:32;;;;;;;20.88;15.90;;;;;;;;;;5048229;28;20045;-74
2022/01/23 09:53:00;;;;;;;15.63;12.05;;;;;;;;;;5048110;28;20083;-73
2022/01/23 09:55:28;;;;;;;17.90;12.95;;;;;;;;;;5048457;28;20041;-74
2022/01/23 09:57:56;;;;;;;19.77;15.80;;;;;;;;;;5038018;28;20064;-74
2022/01/23 10:00:25;;;;;;;20.20;15.25;;;;;;;;;;5027391;28;20131;-75
2022/01/23 10:02:52;;;;;;;19.67;14.93;;;;;;;;;;5038368;28;20049;-74
2022/01/23 10:05:20;;;;;;;19.00;15.40;;;;;;;;;;5045578;28;20037;-74
2022/01/23 10:07:48;;;;;;;19.63;15.57;;;;;;;;;;5047970;28;20040;-74
2022/01/23 10:10:21;;;;;;;17.95;13.85;;;;;;;;;;5047391;28;20037;-75
2022/01/23 10:12:50;;;;;;;24.65;14.77;;;;;;;;;;5045479;28;20055;-74
2022/01/23 10:15:18;;;;;;;17.45;13.82;;;;;;;;;;5043654;28;20045;-74
2022/01/23 10:17:46;;;;;;;14.27;11.90;;;;;;;;;;5044948;28;20507;-73
2022/01/23 10:20:14;;;;;;;21.70;15.05;;;;;;;;;;5040491;28;20080;-75
2022/01/23 10:22:46;;;;;;;17.77;14.45;;;;;;;;;;5039921;28;20048;-75
2022/01/23 10:25:15;;;;;;;16.88;13.95;;;;;;;;;;5037740;28;20048;-74
2022/01/23 10:28:04;;;;;;;17.52;13.50;;;;;;;;;;5036156;28;20119;-74
2022/01/23 10:30:33;;;;;;;17.98;12.68;;;;;;;;;;5026993;28;20049;-74
2022/01/23 10:33:07;;;;;;;16.52;12.98;;;;;;;;;;5039344;28;20040;-75
2022/01/23 10:35:52;;;;;;;16.98;14.05;;;;;;;;;;5020812;28;20052;-75
2022/01/23 10:38:19;;;;;;;14.93;12.15;;;;;;;;;;5019375;28;20301;-75
2022/01/23 10:40:51;;;;;;;16.08;13.82;;;;;;;;;;5041504;28;20045;-75
2022/01/23 10:48:49;;;;;;;14.93;12.98;;;;;;;;;;5037283;28;20048;-77
2022/01/23 10:51:25;;;;;;;15.07;13.03;;;;;;;;;;5017733;28;20049;-72
2022/01/23 10:53:59;;;;;;;17.42;13.25;;;;;;;;;;5037213;28;20040;-76
2022/01/23 10:56:31;;;;;;;16.08;12.10;;;;;;;;;;5038882;28;20049;-75
2022/01/23 10:59:03;;;;;;;16.30;12.18;;;;;;;;;;5039739;28;20041;-74
2022/01/23 11:01:31;;;;;;;14.48;12.02;;;;;;;;;;5023197;28;20045;-75
2022/01/23 11:04:12;;;;;;;14.65;12.98;;;;;;;;;;5023202;28;20053;-75
2022/01/23 11:06:52;;;;;;;17.58;13.40;;;;;;;;;;5041837;28;20453;-74
2022/01/23 11:09:19;;;;;;;14.02;11.65;;;;;;;;;;5018950;28;20083;-75
2022/01/23 11:11:49;;;;;;;13.15;10.82;;;;;;;;;;5038529;28;20372;-75
2022/01/23 11:17:23;;;;;;;13.70;11.48;;;;;;;;;;5021545;28;20053;-75
2022/01/23 11:19:52;;;;;;;16.98;11.93;;;;;;;;;;5021298;28;20566;-76
2022/01/23 11:22:25;;;;;;;14.18;10.88;;;;;;;;;;5035850;28;20476;-74
2022/01/23 11:24:52;;;;;;;;;;;;;;;;;;5040352;28;20068;-75
2022/01/23 11:27:21;;;;;;;16.05;12.65;;;;;;;;;;5032435;28;19932;-75
2022/01/23 11:30:15;;;;;;;14.13;11.55;;;;;;;;;;5029070;28;20112;-75
2022/01/23 11:32:42;;;;;;;13.32;10.63;;;;;;;;;;5032527;28;20049;-73
2022/01/23 11:35:13;;;;;;;14.00;10.95;;;;;;;;;;5016577;28;20041;-74
2022/01/23 11:37:48;;;;;;;13.15;10.85;;;;;;;;;;5038650;28;20052;-74
2022/01/23 11:50:43;;;;;;;13.63;11.48;;;;;;;;;;5038114;28;20469;-73
2022/01/23 11:54:11;;;;;;;14.77;12.20;;;;;;;;;;5038323;28;20155;-73
2022/01/23 11:56:41;;;;;;;12.52;10.93;;;;;;;;;;5037626;28;20047;-74
2022/01/23 11:59:34;;;;;;;12.77;11.25;;;;;;;;;;4975739;28;20149;-75
2022/01/23 12:02:11;;;;;;;12.65;11.05;;;;;;;;;;4971676;28;20522;-74
2022/01/23 12:04:40;;;;;;;14.82;11.32;;;;;;;;;;4974198;28;20063;-74
2022/01/23 12:07:15;;;;;;;12.68;11.35;;;;;;;;;;4962106;28;20740;-74
2022/01/23 12:09:45;;;;;;;12.38;10.88;;;;;;;;;;4974934;28;20838;-74
2022/01/23 12:12:30;;;;;;;14.93;12.35;;;;;;;;;;4976919;28;20077;-73
2022/01/23 12:18:16;;;;;;;11.68;10.13;;;;;;;;;;4973067;28;20146;-75
2022/01/23 12:20:44;;;;;;;;;;;;;;;;;;4973686;28;20054;-74
2022/01/23 12:23:11;;;;;;;11.82;9.95;;;;;;;;;;4974473;28;19929;-74
2022/01/23 12:25:40;;;;;;;14.85;11.52;;;;;;;;;;4974025;28;20551;-73
2022/01/23 12:28:10;;;;;;;10.00;9.00;;;;;;;;;;4958331;28;20121;-74
2022/01/23 12:30:38;;;;;;;10.63;9.52;;;;;;;;;;4970852;28;20070;-75
2022/01/23 12:33:10;;;;;;;10.52;9.43;;;;;;;;;;4972807;28;20050;-74
2022/01/23 12:35:39;;;;;;;11.98;9.73;;;;;;;;;;4976341;28;20169;-74
2022/01/23 12:38:09;;;;;;;10.55;8.85;;;;;;;;;;5015199;28;20049;-73
2022/01/23 12:40:43;;;;;;;11.60;9.30;;;;;;;;;;5034527;28;20049;-74
2022/01/23 12:43:12;;;;;;;10.57;8.38;;;;;;;;;;5016889;28;20180;-74
2022/01/23 12:45:57;;;;;;;12.32;9.25;;;;;;;;;;5035315;28;20049;-77
2022/01/23 12:48:30;;;;;;;10.55;9.45;;;;;;;;;;5016538;28;20060;-74
2022/01/23 12:50:59;;;;;;;11.30;8.85;;;;;;;;;;5033403;28;20073;-75
2022/01/23 12:53:51;;;;;;;8.85;7.75;;;;;;;;;;5035409;28;20041;-74
2022/01/23 12:56:23;;;;;;;9.20;8.25;;;;;;;;;;5015860;28;20041;-75
2022/01/23 12:59:07;;;;;;;11.63;9.88;;;;;;;;;;5034031;28;20598;-75
2022/01/23 13:01:35;;;;;;;8.88;8.02;;;;;;;;;;5008078;28;20068;-75
2022/01/23 13:04:04;;;;;;;10.25;8.40;;;;;;;;;;5029479;28;20045;-75
2022/01/23 13:06:32;;;;;;;10.32;9.02;;;;;;;;;;5036609;28;20061;-74
2022/01/23 13:09:25;;;;;;;9.40;8.38;;;;;;;;;;5036286;28;20069;-75
2022/01/23 13:12:04;;;;;;;8.93;7.93;;;;;;;;;;5037159;28;20052;-74
2022/01/23 13:14:39;;;;;;;9.30;8.30;;;;;;;;;;5031696;28;20126;-76
2022/01/23 13:31:35;;;;;;;12.48;8.45;;;;;;;;;;4933813;28;20043;-74
2022/01/23 13:34:02;;;;;;;8.85;7.47;;;;;;;;;;4934480;28;20047;-75
2022/01/23 13:36:30;;;;;;;8.80;7.90;;;;;;;;;;4936180;28;20149;-74
2022/01/23 13:38:57;;;;;;;9.02;8.02;;;;;;;;;;4934784;28;20169;-73
2022/01/23 13:41:35;;;;;;;9.50;7.97;;;;;;;;;;4936783;28;20082;-73
2022/01/23 13:52:54;;;;;;;8.13;7.22;;;;;;;;;;4935424;29;20260;-74
2022/01/23 13:58:31;;;;;;;7.25;6.55;;;;;;;;;;4951496;28;20074;-75
2022/01/23 14:01:17;;;;;;;8.48;7.57;;;;;;;;;;4952623;28;20151;-75
2022/01/23 14:03:45;;;;;;;7.57;6.85;;;;;;;;;;5035560;28;20358;-74
2022/01/23 14:06:13;;;;;;;8.60;7.78;;;;;;;;;;5014300;28;20068;-75
2022/01/23 14:08:40;;;;;;;6.82;6.13;;;;;;;;;;5032301;28;20045;-75
2022/01/23 14:11:08;;;;;;;7.15;6.45;;;;;;;;;;5029692;28;20147;-74
2022/01/23 14:13:37;;;;;;;8.05;7.15;;;;;;;;;;5007138;28;21658;-75
2022/01/23 14:16:04;;;;;;;7.78;6.90;;;;;;;;;;5014145;28;20073;-74
2022/01/23 14:18:32;;;;;;;6.80;6.15;;;;;;;;;;5014271;28;20046;-75
2022/01/23 14:21:03;;;;;;;6.10;5.50;;;;;;;;;;5035108;28;20049;-74
2022/01/23 14:23:33;;;;;;;7.38;6.68;;;;;;;;;;5035390;28;20061;-74
2022/01/23 14:26:09;;;;;;;8.10;6.80;;;;;;;;;;5018082;28;20095;-76
2022/01/23 14:28:37;;;;;;;7.53;5.93;;;;;;;;;;4969617;28;20038;-75
2022/01/23 14:31:22;;;;;;;7.00;6.30;;;;;;;;;;4974232;28;20050;-75
2022/01/23 14:33:55;;;;;;;7.28;6.57;;;;;;;;;;4992424;28;20089;-76
2022/01/23 14:36:31;;;;;;;7.13;6.35;;;;;;;;;;4991128;28;20042;-74
2022/01/23 14:39:00;;;;;;;11.07;8.40;;;;;;;;;;4991082;28;20380;-75
2022/01/23 14:41:30;;;;;;;7.40;6.70;;;;;;;;;;4979596;28;20104;-75
2022/01/23 14:43:58;;;;;;;6.90;6.30;;;;;;;;;;4993265;28;20148;-75
2022/01/23 14:46:26;;;;;;;9.57;6.78;;;;;;;;;;4991072;28;20054;-74
2022/01/23 14:48:59;;;;;;;6.70;6.00;;;;;;;;;;4979941;28;21236;-75
2022/01/23 14:51:31;;;;;;;6.60;5.57;;;;;;;;;;5010811;28;20041;-75
2022/01/23 14:53:59;;;;;;;7.40;6.32;;;;;;;;;;5013611;28;20062;-76
2022/01/23 14:56:29;;;;;;;6.00;5.40;;;;;;;;;;4996852;28;20162;-75
2022/01/23 14:58:56;;;;;;;7.18;5.95;;;;;;;;;;5016654;28;20156;-76
2022/01/23 15:01:23;;;;;;;6.90;6.20;;;;;;;;;;5027099;28;20548;-76
2022/01/23 15:03:52;;;;;;;6.30;5.70;;;;;;;;;;5008234;28;20129;-77
2022/01/23 15:06:29;;;;;;;6.43;5.80;;;;;;;;;;5029187;28;20049;-76
2022/01/23 15:09:07;;;;;;;6.90;6.20;;;;;;;;;;5028074;28;20041;-76
2022/01/23 15:11:35;;;;;;;6.93;5.90;;;;;;;;;;5038208;28;20041;-76
2022/01/23 15:14:03;;;;;;;6.82;6.13;;;;;;;;;;5040288;28;20041;-77
2022/01/23 15:16:31;;;;;;;9.15;7.53;;;;;;;;;;5035653;28;20045;-75
2022/01/23 15:18:58;;;;;;;9.13;7.38;;;;;;;;;;5037210;28;20052;-76
2022/01/23 15:21:26;;;;;;;9.57;7.22;;;;;;;;;;5034096;28;20111;-75
2022/01/23 15:23:56;;;;;;;7.43;6.35;;;;;;;;;;5020299;28;20551;-76
2022/01/23 15:26:24;;;;;;;7.65;6.85;;;;;;;;;;5042545;28;20674;-75
2022/01/23 15:28:54;;;;;;;7.05;5.95;;;;;;;;;;5039672;28;20041;-76
2022/01/23 15:31:22;;;;;;;7.15;5.97;;;;;;;;;;5038981;28;20371;-76
2022/01/23 15:33:50;;;;;;;7.13;6.10;;;;;;;;;;5037111;28;20428;-76
2022/01/23 15:36:18;;;;;;;8.73;7.30;;;;;;;;;;5028926;28;20760;-76
2022/01/23 15:38:46;;;;;;;6.88;6.18;;;;;;;;;;5037963;28;20045;-76
2022/01/23 15:41:13;;;;;;;7.72;5.65;;;;;;;;;;5019796;28;20163;-75
2022/01/23 15:43:41;;;;;;;6.47;5.88;;;;;;;;;;5037084;28;20587;-75
2022/01/23 15:46:09;;;;;;;6.30;5.70;;;;;;;;;;5038484;28;20065;-76
2022/01/23 15:48:37;;;;;;;8.57;6.93;;;;;;;;;;5039080;28;20136;-76
2022/01/23 15:51:04;;;;;;;7.57;6.80;;;;;;;;;;5017991;28;20041;-76
2022/01/23 15:53:32;;;;;;;7.47;6.75;;;;;;;;;;5037868;28;20045;-77
2022/01/23 15:55:59;;;;;;;6.40;5.85;;;;;;;;;;5019939;28;20045;-77
2022/01/23 15:58:28;;;;;;;7.85;7.05;;;;;;;;;;5021431;28;20508;-76
2022/01/23 16:00:56;;;;;;;8.18;7.13;;;;;;;;;;5020660;28;20072;-74
2022/01/23 16:03:26;;;;;;;7.20;6.00;;;;;;;;;;5019570;28;20048;-74
2022/01/23 16:05:53;;;;;;;7.90;6.57;;;;;;;;;;5037441;28;20068;-76
2022/01/23 16:08:21;;;;;;;8.93;7.05;;;;;;;;;;5034344;28;20040;-75
2022/01/23 16:10:49;;;;;;;6.80;5.43;;;;;;;;;;5036571;28;20455;-75
2022/01/23 16:13:16;;;;;;;7.03;6.32;;;;;;;;;;5040089;28;20527;-75
2022/01/23 16:15:43;;;;;;;8.90;7.25;;;;;;;;;;5036990;28;20044;-75
2022/01/23 16:18:14;;;;;;;7.43;6.63;;;;;;;;;;5040379;28;20052;-74
2022/01/23 16:20:42;;;;;;;7.50;5.63;;;;;;;;;;5037798;28;20049;-74
2022/01/23 16:23:10;;;;;;;8.38;6.53;;;;;;;;;;5018588;28;20041;-76
2022/01/23 16:25:57;;;;;;;7.38;6.60;;;;;;;;;;5015876;28;20788;-75
2022/01/23 16:28:25;;;;;;;7.90;7.20;;;;;;;;;;5033602;28;20029;-77
2022/01/23 16:30:54;;;;;;;8.93;8.02;;;;;;;;;;5012291;28;20045;-75
2022/01/23 16:33:23;;;;;;;7.97;7.15;;;;;;;;;;5030164;28;20036;-75
2022/01/23 16:35:51;;;;;;;8.65;7.38;;;;;;;;;;5018216;28;20034;-76
2022/01/23 16:38:19;;;;;;;9.57;7.65;;;;;;;;;;5015880;28;20440;-76
2022/01/23 16:40:47;;;;;;;9.23;7.68;;;;;;;;;;5035757;28;20124;-75
2022/01/23 16:43:16;;;;;;;10.63;7.78;;;;;;;;;;5034410;28;20042;-76
2022/01/23 16:45:43;;;;;;;9.00;8.10;;;;;;;;;;5016458;28;20074;-77
2022/01/23 16:48:12;;;;;;;8.15;7.35;;;;;;;;;;5016795;28;20067;-76
2022/01/23 16:50:40;;;;;;;8.25;7.45;;;;;;;;;;5013072;28;20064;-79
2022/01/23 16:53:07;;;;;;;8.75;7.95;;;;;;;;;;5022635;28;20674;-75
2022/01/23 16:55:35;;;;;;;8.38;7.50;;;;;;;;;;4993890;28;20115;-77
2022/01/23 16:58:03;;;;;;;8.57;7.63;;;;;;;;;;5013112;28;20041;-77
2022/01/23 17:00:31;;;;;;;9.55;8.50;;;;;;;;;;5017869;28;20103;-76
2022/01/23 17:03:08;;;;;;;10.30;8.73;;;;;;;;;;5034947;28;20554;-75
2022/01/23 17:05:38;;;;;;;11.23;10.10;;;;;;;;;;5034979;28;20124;-76
2022/01/23 17:08:06;;;;;;;12.93;11.52;;;;;;;;;;5034637;28;20638;-75
2022/01/23 17:10:33;;;;;;;15.88;13.93;;;;;;;;;;5032977;28;20280;-76
2022/01/23 17:13:03;;;;;;;13.38;11.48;;;;;;;;;;5020031;28;20045;-77
2022/01/23 17:15:31;;;;;;;12.02;10.52;;;;;;;;;;5038694;28;20437;-75
2022/01/23 17:17:58;;;;;;;10.95;9.60;;;;;;;;;;5022003;28;20501;-75
2022/01/23 17:20:25;;;;;;;11.10;9.90;;;;;;;;;;5036699;28;20120;-77
2022/01/23 17:22:53;;;;;;;12.13;10.05;;;;;;;;;;5035569;28;20132;-75
2022/01/23 17:25:20;;;;;;;12.43;11.15;;;;;;;;;;5037347;28;20412;-75
2022/01/23 17:27:48;;;;;;;14.30;12.57;;;;;;;;;;5036500;28;20132;-76
2022/01/23 17:30:17;;;;;;;14.90;11.82;;;;;;;;;;5037303;28;20444;-76
2022/01/23 17:32:44;;;;;;;15.40;13.55;;;;;;;;;;5035614;28;20043;-75
2022/01/23 17:35:18;;;;;;;13.85;12.25;;;;;;;;;;5038764;28;20045;-74
2022/01/23 17:37:46;;;;;;;17.20;14.38;;;;;;;;;;5002625;28;20713;-76
2022/01/23 17:40:14;;;;;;;15.88;12.65;;;;;;;;;;5015255;28;20052;-75
2022/01/23 17:42:41;;;;;;;13.75;12.32;;;;;;;;;;5019123;28;20260;-75
2022/01/23 17:45:12;;;;;;;14.55;12.68;;;;;;;;;;5036015;28;20812;-76
2022/01/23 17:47:56;;;;;;;14.13;11.00;;;;;;;;;;5019564;28;20080;-76
2022/01/23 17:50:33;;;;;;;12.45;10.70;;;;;;;;;;5039724;28;20057;-75
2022/01/23 17:53:01;;;;;;;13.40;11.43;;;;;;;;;;5036452;28;20045;-76
2022/01/23 17:55:29;;;;;;;13.35;11.32;;;;;;;;;;5016185;28;20056;-75
2022/01/23 17:57:57;;;;;;;14.57;12.45;;;;;;;;;;5037599;28;20401;-75
2022/01/23 18:00:25;;;;;;;13.80;12.13;;;;;;;;;;5036473;28;20048;-75
2022/01/23 18:02:55;;;;;;;13.05;10.35;;;;;;;;;;5038309;28;20403;-75
2022/01/23 18:05:22;;;;;;;14.75;11.13;;;;;;;;;;5020246;28;20052;-75
2022/01/23 18:07:50;;;;;;;14.23;11.80;;;;;;;;;;5036447;28;20041;-76
2022/01/23 18:10:17;;;;;;;15.68;12.65;;;;;;;;;;5030361;28;20516;-75
2022/01/23 18:12:51;;;;;;;14.88;11.98;;;;;;;;;;5031694;28;20071;-76